sensor_id;sensor_type;location;lat;lon;timestamp;P1;durP1;ratioP1;P2;durP2;ratioP2
23586;SDS011;11971;51.148;4.104;2023-08-07T00:00:11;120.75;;;37.55;;
23586;SDS011;11971;51.148;4.104;2023-08-07T00:02:38;114.18;;;37.72;;
23586;SDS011;11971;51.148;4.104;2023-08-07T00:05:06;113.30;;;37.35;;
23586;SDS011;11971;51.148;4.104;2023-08-07T00:07:33;114.72;;;37.97;;
23586;SDS011;11971;51.148;4.104;2023-08-07T00:10:04;112.45;;;37.47;;
23586;SDS011;11971;51.148;4.104;2023-08-07T00:12:32;114.47;;;37.65;;
23586;SDS011;11971;51.148;4.104;2023-08-07T00:15:00;114.65;;;37.45;;
23586;SDS011;11971;51.148;4.104;2023-08-07T00:17:28;113.50;;;37.40;;
23586;SDS011;11971;51.148;4.104;2023-08-07T00:19:58;116.95;;;37.58;;
23586;SDS011;11971;51.148;4.104;2023-08-07T00:22:25;115.88;;;37.40;;
23586;SDS011;11971;51.148;4.104;2023-08-07T00:24:52;115.38;;;37.05;;
23586;SDS011;11971;51.148;4.104;2023-08-07T00:27:19;112.85;;;37.55;;
23586;SDS011;11971;51.148;4.104;2023-08-07T00:29:46;116.50;;;37.47;;
23586;SDS011;11971;51.148;4.104;2023-08-07T00:32:13;113.35;;;37.33;;
23586;SDS011;11971;51.148;4.104;2023-08-07T00:34:42;117.60;;;37.65;;
23586;SDS011;11971;51.148;4.104;2023-08-07T00:37:09;111.70;;;37.45;;
23586;SDS011;11971;51.148;4.104;2023-08-07T00:39:36;111.63;;;37.00;;
23586;SDS011;11971;51.148;4.104;2023-08-07T00:42:04;124.35;;;38.45;;
23586;SDS011;11971;51.148;4.104;2023-08-07T00:44:33;115.57;;;37.75;;
23586;SDS011;11971;51.148;4.104;2023-08-07T00:47:01;115.72;;;37.97;;
23586;SDS011;11971;51.148;4.104;2023-08-07T00:49:27;119.25;;;37.92;;
23586;SDS011;11971;51.148;4.104;2023-08-07T00:51:56;113.40;;;37.45;;
23586;SDS011;11971;51.148;4.104;2023-08-07T00:56:50;111.95;;;37.63;;
23586;SDS011;11971;51.148;4.104;2023-08-07T00:59:18;113.53;;;37.40;;
23586;SDS011;11971;51.148;4.104;2023-08-07T01:01:45;119.32;;;37.38;;
23586;SDS011;11971;51.148;4.104;2023-08-07T01:04:12;115.57;;;37.83;;
23586;SDS011;11971;51.148;4.104;2023-08-07T01:06:40;114.97;;;37.53;;
23586;SDS011;11971;51.148;4.104;2023-08-07T01:09:09;113.40;;;37.28;;
23586;SDS011;11971;51.148;4.104;2023-08-07T01:14:08;112.25;;;36.95;;
23586;SDS011;11971;51.148;4.104;2023-08-07T01:16:41;115.35;;;37.08;;
23586;SDS011;11971;51.148;4.104;2023-08-07T01:19:13;114.57;;;37.65;;
23586;SDS011;11971;51.148;4.104;2023-08-07T01:21:49;117.70;;;37.53;;
23586;SDS011;11971;51.148;4.104;2023-08-07T01:24:16;121.57;;;37.72;;
23586;SDS011;11971;51.148;4.104;2023-08-07T01:26:43;114.03;;;37.20;;
23586;SDS011;11971;51.148;4.104;2023-08-07T01:29:14;117.15;;;37.65;;
23586;SDS011;11971;51.148;4.104;2023-08-07T01:31:43;113.68;;;37.42;;
23586;SDS011;11971;51.148;4.104;2023-08-07T01:34:11;112.80;;;36.92;;
23586;SDS011;11971;51.148;4.104;2023-08-07T01:36:40;113.85;;;37.50;;
23586;SDS011;11971;51.148;4.104;2023-08-07T01:39:10;113.75;;;37.65;;
23586;SDS011;11971;51.148;4.104;2023-08-07T01:44:04;117.30;;;37.17;;
23586;SDS011;11971;51.148;4.104;2023-08-07T01:46:36;115.50;;;37.97;;
23586;SDS011;11971;51.148;4.104;2023-08-07T01:49:03;116.80;;;37.60;;
23586;SDS011;11971;51.148;4.104;2023-08-07T01:51:30;111.10;;;37.10;;
23586;SDS011;11971;51.148;4.104;2023-08-07T01:53:57;116.63;;;37.20;;
23586;SDS011;11971;51.148;4.104;2023-08-07T01:56:27;112.63;;;37.50;;
23586;SDS011;11971;51.148;4.104;2023-08-07T01:58:54;112.88;;;38.03;;
23586;SDS011;11971;51.148;4.104;2023-08-07T02:01:23;113.68;;;37.00;;
23586;SDS011;11971;51.148;4.104;2023-08-07T02:03:50;113.75;;;37.45;;
23586;SDS011;11971;51.148;4.104;2023-08-07T02:06:18;110.68;;;37.00;;
23586;SDS011;11971;51.148;4.104;2023-08-07T02:08:45;113.93;;;37.77;;
23586;SDS011;11971;51.148;4.104;2023-08-07T02:11:13;115.13;;;37.45;;
23586;SDS011;11971;51.148;4.104;2023-08-07T02:13:41;112.25;;;37.55;;
23586;SDS011;11971;51.148;4.104;2023-08-07T02:16:08;116.80;;;37.53;;
23586;SDS011;11971;51.148;4.104;2023-08-07T02:18:37;117.93;;;37.42;;
23586;SDS011;11971;51.148;4.104;2023-08-07T02:21:04;112.10;;;37.42;;
23586;SDS011;11971;51.148;4.104;2023-08-07T02:23:32;117.80;;;38.10;;
23586;SDS011;11971;51.148;4.104;2023-08-07T02:25:59;110.78;;;37.40;;
23586;SDS011;11971;51.148;4.104;2023-08-07T02:28:26;117.60;;;37.33;;
23586;SDS011;11971;51.148;4.104;2023-08-07T02:30:54;113.35;;;37.25;;
23586;SDS011;11971;51.148;4.104;2023-08-07T02:33:21;113.32;;;37.55;;
23586;SDS011;11971;51.148;4.104;2023-08-07T02:35:48;117.20;;;37.42;;
23586;SDS011;11971;51.148;4.104;2023-08-07T02:38:16;113.95;;;37.17;;
23586;SDS011;11971;51.148;4.104;2023-08-07T02:40:44;114.35;;;37.28;;
23586;SDS011;11971;51.148;4.104;2023-08-07T02:43:11;114.40;;;37.80;;
23586;SDS011;11971;51.148;4.104;2023-08-07T02:45:38;110.68;;;37.25;;
23586;SDS011;11971;51.148;4.104;2023-08-07T02:48:06;115.50;;;37.20;;
23586;SDS011;11971;51.148;4.104;2023-08-07T02:50:33;111.18;;;37.03;;
23586;SDS011;11971;51.148;4.104;2023-08-07T02:53:01;117.43;;;37.85;;
23586;SDS011;11971;51.148;4.104;2023-08-07T02:55:29;115.53;;;37.55;;
23586;SDS011;11971;51.148;4.104;2023-08-07T02:57:59;114.15;;;37.45;;
23586;SDS011;11971;51.148;4.104;2023-08-07T03:00:26;117.72;;;37.58;;
23586;SDS011;11971;51.148;4.104;2023-08-07T03:02:53;115.18;;;37.45;;
23586;SDS011;11971;51.148;4.104;2023-08-07T03:05:21;110.93;;;37.20;;
23586;SDS011;11971;51.148;4.104;2023-08-07T03:07:48;119.50;;;37.67;;
23586;SDS011;11971;51.148;4.104;2023-08-07T03:10:14;114.07;;;37.35;;
23586;SDS011;11971;51.148;4.104;2023-08-07T03:12:42;118.13;;;37.83;;
23586;SDS011;11971;51.148;4.104;2023-08-07T03:15:09;115.05;;;37.75;;
23586;SDS011;11971;51.148;4.104;2023-08-07T03:17:36;111.68;;;37.55;;
23586;SDS011;11971;51.148;4.104;2023-08-07T03:20:04;114.53;;;38.13;;
23586;SDS011;11971;51.148;4.104;2023-08-07T03:22:33;117.70;;;37.87;;
23586;SDS011;11971;51.148;4.104;2023-08-07T03:25:00;117.95;;;38.05;;
23586;SDS011;11971;51.148;4.104;2023-08-07T03:27:27;114.68;;;37.90;;
23586;SDS011;11971;51.148;4.104;2023-08-07T03:29:54;115.68;;;38.22;;
23586;SDS011;11971;51.148;4.104;2023-08-07T03:32:21;113.28;;;37.90;;
23586;SDS011;11971;51.148;4.104;2023-08-07T03:34:48;116.07;;;38.03;;
23586;SDS011;11971;51.148;4.104;2023-08-07T03:37:15;112.95;;;37.90;;
23586;SDS011;11971;51.148;4.104;2023-08-07T03:39:43;112.57;;;37.58;;
23586;SDS011;11971;51.148;4.104;2023-08-07T03:42:13;116.32;;;37.72;;
23586;SDS011;11971;51.148;4.104;2023-08-07T03:44:42;115.97;;;37.75;;
23586;SDS011;11971;51.148;4.104;2023-08-07T03:47:09;115.47;;;37.65;;
23586;SDS011;11971;51.148;4.104;2023-08-07T03:49:36;112.35;;;37.22;;
23586;SDS011;11971;51.148;4.104;2023-08-07T03:52:04;112.45;;;37.42;;
23586;SDS011;11971;51.148;4.104;2023-08-07T03:54:31;112.45;;;38.00;;
23586;SDS011;11971;51.148;4.104;2023-08-07T03:56:59;114.88;;;38.20;;
23586;SDS011;11971;51.148;4.104;2023-08-07T03:59:28;112.57;;;37.47;;
23586;SDS011;11971;51.148;4.104;2023-08-07T04:01:55;111.40;;;37.53;;
23586;SDS011;11971;51.148;4.104;2023-08-07T04:04:22;112.53;;;37.55;;
23586;SDS011;11971;51.148;4.104;2023-08-07T04:06:49;114.30;;;37.33;;
23586;SDS011;11971;51.148;4.104;2023-08-07T04:09:16;118.78;;;38.00;;
23586;SDS011;11971;51.148;4.104;2023-08-07T04:11:43;114.10;;;38.05;;
23586;SDS011;11971;51.148;4.104;2023-08-07T04:14:16;116.75;;;37.83;;
23586;SDS011;11971;51.148;4.104;2023-08-07T04:16:42;117.57;;;37.58;;
23586;SDS011;11971;51.148;4.104;2023-08-07T04:19:11;117.15;;;37.92;;
23586;SDS011;11971;51.148;4.104;2023-08-07T04:21:38;112.15;;;37.55;;
23586;SDS011;11971;51.148;4.104;2023-08-07T04:24:05;115.20;;;37.95;;
23586;SDS011;11971;51.148;4.104;2023-08-07T04:26:36;116.47;;;37.75;;
23586;SDS011;11971;51.148;4.104;2023-08-07T04:29:03;117.57;;;37.63;;
23586;SDS011;11971;51.148;4.104;2023-08-07T04:31:31;113.93;;;37.47;;
23586;SDS011;11971;51.148;4.104;2023-08-07T04:33:59;116.03;;;38.10;;
23586;SDS011;11971;51.148;4.104;2023-08-07T04:36:26;116.55;;;38.25;;
23586;SDS011;11971;51.148;4.104;2023-08-07T04:38:52;115.18;;;37.95;;
23586;SDS011;11971;51.148;4.104;2023-08-07T04:41:20;110.28;;;37.53;;
23586;SDS011;11971;51.148;4.104;2023-08-07T04:43:47;113.75;;;37.95;;
23586;SDS011;11971;51.148;4.104;2023-08-07T04:46:14;117.35;;;38.50;;
23586;SDS011;11971;51.148;4.104;2023-08-07T04:48:42;115.72;;;37.45;;
23586;SDS011;11971;51.148;4.104;2023-08-07T04:51:11;113.28;;;37.97;;
23586;SDS011;11971;51.148;4.104;2023-08-07T04:53:37;117.35;;;37.97;;
23586;SDS011;11971;51.148;4.104;2023-08-07T04:56:04;112.18;;;37.88;;
23586;SDS011;11971;51.148;4.104;2023-08-07T04:58:34;117.95;;;38.08;;
23586;SDS011;11971;51.148;4.104;2023-08-07T05:01:01;114.50;;;38.28;;
23586;SDS011;11971;51.148;4.104;2023-08-07T05:03:28;117.45;;;38.17;;
23586;SDS011;11971;51.148;4.104;2023-08-07T05:06:00;115.05;;;38.03;;
23586;SDS011;11971;51.148;4.104;2023-08-07T05:08:30;110.20;;;37.22;;
23586;SDS011;11971;51.148;4.104;2023-08-07T05:10:57;113.38;;;37.28;;
23586;SDS011;11971;51.148;4.104;2023-08-07T05:13:24;112.43;;;37.88;;
23586;SDS011;11971;51.148;4.104;2023-08-07T05:15:51;111.72;;;37.92;;
23586;SDS011;11971;51.148;4.104;2023-08-07T05:18:18;115.65;;;37.65;;
23586;SDS011;11971;51.148;4.104;2023-08-07T05:20:45;111.93;;;37.50;;
23586;SDS011;11971;51.148;4.104;2023-08-07T05:23:13;117.40;;;37.65;;
23586;SDS011;11971;51.148;4.104;2023-08-07T05:25:40;115.70;;;37.65;;
23586;SDS011;11971;51.148;4.104;2023-08-07T05:28:07;112.57;;;37.83;;
23586;SDS011;11971;51.148;4.104;2023-08-07T05:30:34;109.43;;;37.33;;
23586;SDS011;11971;51.148;4.104;2023-08-07T05:33:00;119.43;;;38.00;;
23586;SDS011;11971;51.148;4.104;2023-08-07T05:35:27;117.32;;;38.30;;
23586;SDS011;11971;51.148;4.104;2023-08-07T05:37:54;116.15;;;38.58;;
23586;SDS011;11971;51.148;4.104;2023-08-07T05:40:22;116.13;;;38.17;;
23586;SDS011;11971;51.148;4.104;2023-08-07T05:42:49;112.80;;;38.10;;
23586;SDS011;11971;51.148;4.104;2023-08-07T05:45:16;116.70;;;38.53;;
23586;SDS011;11971;51.148;4.104;2023-08-07T05:47:45;114.28;;;37.90;;
23586;SDS011;11971;51.148;4.104;2023-08-07T05:50:12;119.32;;;38.72;;
23586;SDS011;11971;51.148;4.104;2023-08-07T05:52:39;122.93;;;38.72;;
23586;SDS011;11971;51.148;4.104;2023-08-07T05:55:07;117.53;;;38.65;;
23586;SDS011;11971;51.148;4.104;2023-08-07T05:57:35;115.25;;;37.67;;
23586;SDS011;11971;51.148;4.104;2023-08-07T06:00:03;117.27;;;38.00;;
23586;SDS011;11971;51.148;4.104;2023-08-07T06:02:30;117.03;;;38.80;;
23586;SDS011;11971;51.148;4.104;2023-08-07T06:04:57;122.25;;;39.70;;
23586;SDS011;11971;51.148;4.104;2023-08-07T06:07:24;123.50;;;38.65;;
23586;SDS011;11971;51.148;4.104;2023-08-07T06:09:51;120.47;;;38.97;;
23586;SDS011;11971;51.148;4.104;2023-08-07T06:12:18;123.30;;;39.70;;
23586;SDS011;11971;51.148;4.104;2023-08-07T06:14:46;120.28;;;38.65;;
23586;SDS011;11971;51.148;4.104;2023-08-07T06:17:13;120.87;;;38.97;;
23586;SDS011;11971;51.148;4.104;2023-08-07T06:19:40;116.22;;;38.45;;
23586;SDS011;11971;51.148;4.104;2023-08-07T06:22:07;118.10;;;38.72;;
23586;SDS011;11971;51.148;4.104;2023-08-07T06:24:34;121.50;;;38.65;;
23586;SDS011;11971;51.148;4.104;2023-08-07T06:27:02;120.97;;;39.13;;
23586;SDS011;11971;51.148;4.104;2023-08-07T06:29:29;115.63;;;38.45;;
23586;SDS011;11971;51.148;4.104;2023-08-07T06:31:57;119.18;;;38.95;;
23586;SDS011;11971;51.148;4.104;2023-08-07T06:34:24;116.57;;;38.63;;
23586;SDS011;11971;51.148;4.104;2023-08-07T06:36:51;121.53;;;38.85;;
23586;SDS011;11971;51.148;4.104;2023-08-07T06:39:18;117.20;;;38.42;;
23586;SDS011;11971;51.148;4.104;2023-08-07T06:41:45;119.18;;;38.70;;
23586;SDS011;11971;51.148;4.104;2023-08-07T06:44:11;122.65;;;38.97;;
23586;SDS011;11971;51.148;4.104;2023-08-07T06:46:38;118.85;;;38.53;;
23586;SDS011;11971;51.148;4.104;2023-08-07T06:49:06;119.15;;;39.15;;
23586;SDS011;11971;51.148;4.104;2023-08-07T06:51:34;123.07;;;39.08;;
23586;SDS011;11971;51.148;4.104;2023-08-07T06:54:01;127.05;;;39.35;;
23586;SDS011;11971;51.148;4.104;2023-08-07T06:56:28;124.13;;;39.53;;
23586;SDS011;11971;51.148;4.104;2023-08-07T06:58:54;118.10;;;39.08;;
23586;SDS011;11971;51.148;4.104;2023-08-07T07:01:21;123.68;;;38.97;;
23586;SDS011;11971;51.148;4.104;2023-08-07T07:03:48;122.13;;;38.70;;
23586;SDS011;11971;51.148;4.104;2023-08-07T07:06:19;117.15;;;38.42;;
23586;SDS011;11971;51.148;4.104;2023-08-07T07:08:46;118.45;;;38.42;;
23586;SDS011;11971;51.148;4.104;2023-08-07T07:11:12;118.80;;;38.97;;
23586;SDS011;11971;51.148;4.104;2023-08-07T07:13:41;119.03;;;38.78;;
23586;SDS011;11971;51.148;4.104;2023-08-07T07:16:08;121.72;;;38.65;;
23586;SDS011;11971;51.148;4.104;2023-08-07T07:18:37;121.60;;;38.63;;
23586;SDS011;11971;51.148;4.104;2023-08-07T07:21:03;117.68;;;38.28;;
23586;SDS011;11971;51.148;4.104;2023-08-07T07:23:32;120.47;;;39.22;;
23586;SDS011;11971;51.148;4.104;2023-08-07T07:25:58;120.60;;;39.07;;
23586;SDS011;11971;51.148;4.104;2023-08-07T07:28:25;126.55;;;38.83;;
23586;SDS011;11971;51.148;4.104;2023-08-07T07:30:52;122.75;;;39.33;;
23586;SDS011;11971;51.148;4.104;2023-08-07T07:33:19;124.18;;;39.55;;
23586;SDS011;11971;51.148;4.104;2023-08-07T07:35:46;120.40;;;38.83;;
23586;SDS011;11971;51.148;4.104;2023-08-07T07:38:13;124.20;;;39.15;;
23586;SDS011;11971;51.148;4.104;2023-08-07T07:40:42;122.38;;;39.15;;
23586;SDS011;11971;51.148;4.104;2023-08-07T07:45:36;119.55;;;39.08;;
23586;SDS011;11971;51.148;4.104;2023-08-07T07:48:03;121.85;;;39.20;;
23586;SDS011;11971;51.148;4.104;2023-08-07T07:50:31;120.07;;;39.10;;
23586;SDS011;11971;51.148;4.104;2023-08-07T07:52:58;122.13;;;39.22;;
23586;SDS011;11971;51.148;4.104;2023-08-07T07:55:24;121.10;;;39.15;;
23586;SDS011;11971;51.148;4.104;2023-08-07T07:57:53;124.53;;;39.17;;
23586;SDS011;11971;51.148;4.104;2023-08-07T08:00:20;120.97;;;39.17;;
23586;SDS011;11971;51.148;4.104;2023-08-07T08:02:51;120.65;;;38.95;;
23586;SDS011;11971;51.148;4.104;2023-08-07T08:05:18;120.68;;;38.80;;
23586;SDS011;11971;51.148;4.104;2023-08-07T08:07:45;123.88;;;39.17;;
23586;SDS011;11971;51.148;4.104;2023-08-07T08:10:12;119.78;;;38.92;;
23586;SDS011;11971;51.148;4.104;2023-08-07T08:12:38;121.45;;;39.42;;
23586;SDS011;11971;51.148;4.104;2023-08-07T08:15:08;122.20;;;39.17;;
23586;SDS011;11971;51.148;4.104;2023-08-07T08:17:35;119.35;;;39.13;;
23586;SDS011;11971;51.148;4.104;2023-08-07T08:20:02;118.68;;;38.95;;
23586;SDS011;11971;51.148;4.104;2023-08-07T08:22:29;122.95;;;39.03;;
23586;SDS011;11971;51.148;4.104;2023-08-07T08:24:56;120.68;;;39.45;;
23586;SDS011;11971;51.148;4.104;2023-08-07T08:27:23;122.70;;;39.38;;
23586;SDS011;11971;51.148;4.104;2023-08-07T08:29:50;120.50;;;39.63;;
23586;SDS011;11971;51.148;4.104;2023-08-07T08:32:18;121.82;;;39.58;;
23586;SDS011;11971;51.148;4.104;2023-08-07T08:34:45;118.90;;;39.10;;
23586;SDS011;11971;51.148;4.104;2023-08-07T08:37:14;120.18;;;39.08;;
23586;SDS011;11971;51.148;4.104;2023-08-07T08:39:41;119.47;;;39.35;;
23586;SDS011;11971;51.148;4.104;2023-08-07T08:42:08;120.40;;;39.30;;
23586;SDS011;11971;51.148;4.104;2023-08-07T08:44:37;119.65;;;39.15;;
23586;SDS011;11971;51.148;4.104;2023-08-07T08:47:06;120.97;;;39.22;;
23586;SDS011;11971;51.148;4.104;2023-08-07T08:49:35;124.47;;;39.67;;
23586;SDS011;11971;51.148;4.104;2023-08-07T08:52:04;119.22;;;38.95;;
23586;SDS011;11971;51.148;4.104;2023-08-07T08:54:32;121.13;;;39.42;;
23586;SDS011;11971;51.148;4.104;2023-08-07T08:56:59;122.07;;;39.65;;
23586;SDS011;11971;51.148;4.104;2023-08-07T08:59:25;121.10;;;39.25;;
23586;SDS011;11971;51.148;4.104;2023-08-07T09:01:53;120.82;;;39.33;;
23586;SDS011;11971;51.148;4.104;2023-08-07T09:04:20;120.78;;;39.55;;
23586;SDS011;11971;51.148;4.104;2023-08-07T09:06:48;120.45;;;39.08;;
23586;SDS011;11971;51.148;4.104;2023-08-07T09:09:16;122.82;;;39.10;;
23586;SDS011;11971;51.148;4.104;2023-08-07T09:11:43;120.82;;;39.03;;
23586;SDS011;11971;51.148;4.104;2023-08-07T09:14:11;121.30;;;39.22;;
23586;SDS011;11971;51.148;4.104;2023-08-07T09:16:48;121.05;;;38.95;;
23586;SDS011;11971;51.148;4.104;2023-08-07T09:19:15;122.25;;;39.60;;
23586;SDS011;11971;51.148;4.104;2023-08-07T09:21:42;122.57;;;39.53;;
23586;SDS011;11971;51.148;4.104;2023-08-07T09:24:10;119.93;;;39.25;;
23586;SDS011;11971;51.148;4.104;2023-08-07T09:26:37;121.00;;;39.35;;
23586;SDS011;11971;51.148;4.104;2023-08-07T09:29:05;127.30;;;39.85;;
23586;SDS011;11971;51.148;4.104;2023-08-07T09:31:32;123.82;;;39.42;;
23586;SDS011;11971;51.148;4.104;2023-08-07T09:34:01;121.60;;;39.55;;
23586;SDS011;11971;51.148;4.104;2023-08-07T09:36:29;122.38;;;39.72;;
23586;SDS011;11971;51.148;4.104;2023-08-07T09:38:56;122.40;;;39.90;;
23586;SDS011;11971;51.148;4.104;2023-08-07T09:41:24;123.32;;;39.80;;
23586;SDS011;11971;51.148;4.104;2023-08-07T09:43:52;122.30;;;39.88;;
23586;SDS011;11971;51.148;4.104;2023-08-07T09:46:19;124.70;;;40.22;;
23586;SDS011;11971;51.148;4.104;2023-08-07T09:48:47;121.43;;;39.50;;
23586;SDS011;11971;51.148;4.104;2023-08-07T09:51:14;121.93;;;39.53;;
23586;SDS011;11971;51.148;4.104;2023-08-07T09:53:41;124.15;;;40.00;;
23586;SDS011;11971;51.148;4.104;2023-08-07T09:56:07;122.03;;;39.85;;
23586;SDS011;11971;51.148;4.104;2023-08-07T09:58:37;125.70;;;40.22;;
23586;SDS011;11971;51.148;4.104;2023-08-07T10:01:04;122.75;;;40.15;;
23586;SDS011;11971;51.148;4.104;2023-08-07T10:03:31;123.68;;;39.92;;
23586;SDS011;11971;51.148;4.104;2023-08-07T10:05:58;124.28;;;39.90;;
23586;SDS011;11971;51.148;4.104;2023-08-07T10:08:25;123.65;;;39.83;;
23586;SDS011;11971;51.148;4.104;2023-08-07T10:10:52;121.55;;;39.47;;
23586;SDS011;11971;51.148;4.104;2023-08-07T10:13:19;120.95;;;39.47;;
23586;SDS011;11971;51.148;4.104;2023-08-07T10:15:47;121.80;;;39.85;;
23586;SDS011;11971;51.148;4.104;2023-08-07T10:18:15;123.25;;;40.22;;
23586;SDS011;11971;51.148;4.104;2023-08-07T10:20:41;123.82;;;39.65;;
23586;SDS011;11971;51.148;4.104;2023-08-07T10:23:09;124.53;;;40.00;;
23586;SDS011;11971;51.148;4.104;2023-08-07T10:25:39;122.05;;;40.03;;
23586;SDS011;11971;51.148;4.104;2023-08-07T10:28:08;123.03;;;40.10;;
23586;SDS011;11971;51.148;4.104;2023-08-07T10:30:35;123.53;;;40.08;;
23586;SDS011;11971;51.148;4.104;2023-08-07T10:33:04;120.60;;;39.45;;
23586;SDS011;11971;51.148;4.104;2023-08-07T10:35:32;121.00;;;39.53;;
23586;SDS011;11971;51.148;4.104;2023-08-07T10:38:04;122.30;;;39.67;;
23586;SDS011;11971;51.148;4.104;2023-08-07T10:40:32;122.15;;;39.75;;
23586;SDS011;11971;51.148;4.104;2023-08-07T10:42:59;122.88;;;40.15;;
23586;SDS011;11971;51.148;4.104;2023-08-07T10:45:27;123.85;;;39.88;;
23586;SDS011;11971;51.148;4.104;2023-08-07T10:47:57;124.45;;;40.15;;
23586;SDS011;11971;51.148;4.104;2023-08-07T10:50:50;123.13;;;39.97;;
23586;SDS011;11971;51.148;4.104;2023-08-07T10:53:21;124.60;;;40.33;;
23586;SDS011;11971;51.148;4.104;2023-08-07T10:55:54;120.85;;;39.22;;
23586;SDS011;11971;51.148;4.104;2023-08-07T10:58:23;122.82;;;39.97;;
23586;SDS011;11971;51.148;4.104;2023-08-07T11:00:50;126.22;;;40.00;;
23586;SDS011;11971;51.148;4.104;2023-08-07T11:03:25;124.07;;;40.25;;
23586;SDS011;11971;51.148;4.104;2023-08-07T11:05:54;126.03;;;40.42;;
23586;SDS011;11971;51.148;4.104;2023-08-07T11:08:24;124.38;;;40.25;;
23586;SDS011;11971;51.148;4.104;2023-08-07T11:10:51;124.28;;;40.53;;
23586;SDS011;11971;51.148;4.104;2023-08-07T11:13:18;125.82;;;40.45;;
23586;SDS011;11971;51.148;4.104;2023-08-07T11:15:45;125.03;;;40.78;;
23586;SDS011;11971;51.148;4.104;2023-08-07T11:18:12;128.00;;;40.70;;
23586;SDS011;11971;51.148;4.104;2023-08-07T11:20:39;126.38;;;40.65;;
23586;SDS011;11971;51.148;4.104;2023-08-07T11:23:07;124.70;;;40.28;;
23586;SDS011;11971;51.148;4.104;2023-08-07T11:25:34;125.20;;;40.67;;
23586;SDS011;11971;51.148;4.104;2023-08-07T11:28:03;127.43;;;40.83;;
23586;SDS011;11971;51.148;4.104;2023-08-07T11:30:30;127.40;;;40.67;;
23586;SDS011;11971;51.148;4.104;2023-08-07T11:32:56;128.90;;;40.83;;
23586;SDS011;11971;51.148;4.104;2023-08-07T11:35:23;128.02;;;41.10;;
23586;SDS011;11971;51.148;4.104;2023-08-07T11:37:50;128.60;;;41.10;;
23586;SDS011;11971;51.148;4.104;2023-08-07T11:40:20;127.78;;;41.13;;
23586;SDS011;11971;51.148;4.104;2023-08-07T11:42:47;128.93;;;40.97;;
23586;SDS011;11971;51.148;4.104;2023-08-07T11:45:14;127.35;;;41.00;;
23586;SDS011;11971;51.148;4.104;2023-08-07T11:47:41;125.72;;;40.92;;
23586;SDS011;11971;51.148;4.104;2023-08-07T11:50:08;125.15;;;40.63;;
23586;SDS011;11971;51.148;4.104;2023-08-07T11:52:37;127.18;;;41.15;;
23586;SDS011;11971;51.148;4.104;2023-08-07T11:55:05;124.95;;;40.47;;
23586;SDS011;11971;51.148;4.104;2023-08-07T12:00:05;125.65;;;40.55;;
23586;SDS011;11971;51.148;4.104;2023-08-07T12:02:35;128.75;;;40.75;;
23586;SDS011;11971;51.148;4.104;2023-08-07T12:05:01;128.80;;;40.55;;
23586;SDS011;11971;51.148;4.104;2023-08-07T12:07:29;123.57;;;40.05;;
23586;SDS011;11971;51.148;4.104;2023-08-07T12:09:56;125.97;;;40.45;;
23586;SDS011;11971;51.148;4.104;2023-08-07T12:12:23;124.80;;;40.30;;
23586;SDS011;11971;51.148;4.104;2023-08-07T12:14:53;125.47;;;40.50;;
23586;SDS011;11971;51.148;4.104;2023-08-07T12:17:21;126.30;;;40.53;;
23586;SDS011;11971;51.148;4.104;2023-08-07T12:19:48;127.72;;;40.72;;
23586;SDS011;11971;51.148;4.104;2023-08-07T12:22:18;127.45;;;40.90;;
23586;SDS011;11971;51.148;4.104;2023-08-07T12:24:46;126.65;;;40.45;;
23586;SDS011;11971;51.148;4.104;2023-08-07T12:27:13;127.88;;;41.10;;
23586;SDS011;11971;51.148;4.104;2023-08-07T12:29:39;126.82;;;40.60;;
23586;SDS011;11971;51.148;4.104;2023-08-07T12:32:08;128.05;;;40.85;;
23586;SDS011;11971;51.148;4.104;2023-08-07T12:34:35;127.80;;;41.08;;
23586;SDS011;11971;51.148;4.104;2023-08-07T12:37:03;126.53;;;40.88;;
23586;SDS011;11971;51.148;4.104;2023-08-07T12:39:30;126.57;;;40.97;;
23586;SDS011;11971;51.148;4.104;2023-08-07T12:41:57;127.88;;;41.22;;
23586;SDS011;11971;51.148;4.104;2023-08-07T12:44:24;127.45;;;41.13;;
23586;SDS011;11971;51.148;4.104;2023-08-07T12:46:51;127.47;;;41.00;;
23586;SDS011;11971;51.148;4.104;2023-08-07T12:49:19;126.32;;;40.88;;
23586;SDS011;11971;51.148;4.104;2023-08-07T12:51:46;135.40;;;41.17;;
23586;SDS011;11971;51.148;4.104;2023-08-07T12:54:13;127.75;;;40.67;;
23586;SDS011;11971;51.148;4.104;2023-08-07T12:56:39;125.45;;;39.88;;
23586;SDS011;11971;51.148;4.104;2023-08-07T12:59:06;125.47;;;40.28;;
23586;SDS011;11971;51.148;4.104;2023-08-07T13:01:33;130.10;;;39.95;;
23586;SDS011;11971;51.148;4.104;2023-08-07T13:04:00;124.13;;;39.90;;
23586;SDS011;11971;51.148;4.104;2023-08-07T13:06:30;127.97;;;40.55;;
23586;SDS011;11971;51.148;4.104;2023-08-07T13:08:57;127.03;;;40.40;;
23586;SDS011;11971;51.148;4.104;2023-08-07T13:11:25;125.00;;;40.20;;
23586;SDS011;11971;51.148;4.104;2023-08-07T13:13:52;125.63;;;40.38;;
23586;SDS011;11971;51.148;4.104;2023-08-07T13:16:19;124.82;;;40.17;;
23586;SDS011;11971;51.148;4.104;2023-08-07T13:18:45;127.00;;;40.20;;
23586;SDS011;11971;51.148;4.104;2023-08-07T13:21:12;125.47;;;40.05;;
23586;SDS011;11971;51.148;4.104;2023-08-07T13:23:40;125.93;;;40.03;;
23586;SDS011;11971;51.148;4.104;2023-08-07T13:26:07;126.18;;;40.13;;
23586;SDS011;11971;51.148;4.104;2023-08-07T13:28:34;124.25;;;39.72;;
23586;SDS011;11971;51.148;4.104;2023-08-07T13:31:00;126.22;;;40.22;;
23586;SDS011;11971;51.148;4.104;2023-08-07T13:33:27;126.63;;;40.70;;
23586;SDS011;11971;51.148;4.104;2023-08-07T13:35:54;126.45;;;40.75;;
23586;SDS011;11971;51.148;4.104;2023-08-07T13:38:21;126.40;;;40.28;;
23586;SDS011;11971;51.148;4.104;2023-08-07T13:40:49;125.43;;;40.38;;
23586;SDS011;11971;51.148;4.104;2023-08-07T13:43:16;127.43;;;40.97;;
23586;SDS011;11971;51.148;4.104;2023-08-07T13:45:43;126.22;;;40.40;;
23586;SDS011;11971;51.148;4.104;2023-08-07T13:48:10;133.00;;;40.38;;
23586;SDS011;11971;51.148;4.104;2023-08-07T13:50:36;125.78;;;40.35;;
23586;SDS011;11971;51.148;4.104;2023-08-07T13:53:04;129.75;;;40.40;;
23586;SDS011;11971;51.148;4.104;2023-08-07T13:55:31;131.43;;;40.85;;
23586;SDS011;11971;51.148;4.104;2023-08-07T13:57:59;128.50;;;40.78;;
23586;SDS011;11971;51.148;4.104;2023-08-07T14:00:26;131.32;;;40.83;;
23586;SDS011;11971;51.148;4.104;2023-08-07T14:02:53;127.82;;;40.80;;
23586;SDS011;11971;51.148;4.104;2023-08-07T14:05:20;127.88;;;40.80;;
23586;SDS011;11971;51.148;4.104;2023-08-07T14:07:46;127.00;;;40.53;;
23586;SDS011;11971;51.148;4.104;2023-08-07T14:10:13;130.00;;;40.17;;
23586;SDS011;11971;51.148;4.104;2023-08-07T14:12:40;126.47;;;40.35;;
23586;SDS011;11971;51.148;4.104;2023-08-07T14:15:09;128.20;;;40.70;;
23586;SDS011;11971;51.148;4.104;2023-08-07T14:17:37;126.68;;;40.17;;
23586;SDS011;11971;51.148;4.104;2023-08-07T14:20:04;130.40;;;40.75;;
23586;SDS011;11971;51.148;4.104;2023-08-07T14:22:31;129.57;;;40.85;;